createdAt,value
2017-08-13T00:01:48.070Z,4.50
2017-08-13T00:04:14.409Z,4.80
2017-08-13T00:06:40.842Z,4.40
2017-08-13T00:09:07.222Z,4.70
2017-08-13T00:11:33.595Z,5.27
2017-08-13T00:13:59.971Z,5.10
2017-08-13T00:16:26.728Z,5.10
2017-08-13T00:18:53.104Z,4.70
2017-08-13T00:21:19.450Z,5.00
2017-08-13T00:23:48.075Z,4.87
2017-08-13T00:26:14.524Z,4.40
2017-08-13T00:28:40.894Z,4.37
2017-08-13T00:31:07.986Z,4.47
2017-08-13T00:33:34.367Z,4.50
2017-08-13T00:36:01.509Z,4.20
2017-08-13T00:38:27.882Z,4.57
2017-08-13T00:40:54.291Z,4.77
2017-08-13T00:43:20.663Z,5.13
2017-08-13T00:45:47.064Z,5.00
2017-08-13T00:48:13.506Z,5.60
2017-08-13T00:50:39.914Z,5.10
2017-08-13T00:53:06.271Z,5.07
2017-08-13T00:55:32.662Z,4.90
2017-08-13T00:57:59.151Z,4.70
2017-08-13T01:00:25.566Z,4.77
2017-08-13T01:02:51.957Z,4.50
2017-08-13T01:05:18.606Z,4.77
2017-08-13T01:07:45.000Z,5.40
2017-08-13T01:10:12.109Z,5.07
2017-08-13T01:12:38.456Z,4.60
2017-08-13T01:15:04.821Z,4.43
2017-08-13T01:17:31.241Z,4.90
2017-08-13T01:19:57.592Z,5.37
2017-08-13T01:22:24.734Z,4.90
2017-08-13T01:24:51.854Z,4.83
2017-08-13T01:27:18.607Z,4.47
2017-08-13T01:29:45.078Z,4.67
2017-08-13T01:32:11.448Z,5.13
2017-08-13T01:34:37.829Z,4.77
2017-08-13T01:37:04.171Z,4.77
2017-08-13T01:39:30.556Z,4.43
2017-08-13T01:41:56.944Z,4.43
2017-08-13T01:44:23.367Z,4.33
2017-08-13T01:46:49.706Z,4.83
2017-08-13T01:49:16.119Z,4.67
2017-08-13T01:51:42.453Z,4.60
2017-08-13T01:54:08.821Z,5.20
2017-08-13T01:56:35.200Z,4.53
2017-08-13T01:59:02.314Z,4.60
2017-08-13T02:01:28.670Z,5.43
2017-08-13T02:03:55.058Z,4.50
2017-08-13T02:06:21.418Z,5.17
2017-08-13T02:08:47.769Z,4.80
2017-08-13T02:11:14.179Z,4.60
2017-08-13T02:13:41.302Z,4.90
2017-08-13T02:16:07.673Z,4.50
2017-08-13T02:18:34.036Z,4.47
2017-08-13T02:21:00.461Z,4.83
2017-08-13T02:23:26.959Z,4.40
2017-08-13T02:25:53.352Z,4.70
2017-08-13T02:28:19.805Z,4.50
2017-08-13T02:30:46.914Z,5.23
2017-08-13T02:33:13.310Z,4.10
2017-08-13T02:35:39.670Z,4.40
2017-08-13T02:38:06.070Z,4.00
2017-08-13T02:40:32.398Z,4.30
2017-08-13T02:42:58.789Z,4.53
2017-08-13T02:45:25.188Z,5.10
2017-08-13T02:47:51.554Z,4.37
2017-08-13T02:50:17.981Z,5.63
2017-08-13T02:52:44.345Z,4.80
2017-08-13T02:55:10.755Z,5.70
2017-08-13T02:57:37.866Z,5.40
2017-08-13T03:00:04.273Z,5.30
2017-08-13T03:02:30.644Z,6.37
2017-08-13T03:04:57.032Z,5.30
2017-08-13T03:07:23.439Z,5.10
2017-08-13T03:09:50.505Z,5.07
2017-08-13T03:12:16.858Z,5.50
2017-08-13T03:14:43.193Z,5.53
2017-08-13T03:17:09.564Z,5.90
2017-08-13T03:19:35.998Z,5.60
2017-08-13T03:22:03.561Z,4.40
2017-08-13T03:24:30.703Z,5.00
2017-08-13T03:26:57.793Z,5.37
2017-08-13T03:29:24.215Z,5.50
2017-08-13T03:31:50.643Z,5.87
2017-08-13T03:34:17.011Z,5.57
2017-08-13T03:36:43.342Z,5.40
2017-08-13T03:39:09.718Z,5.57
2017-08-13T03:41:36.081Z,5.00
2017-08-13T03:44:02.782Z,5.90
2017-08-13T03:46:29.162Z,4.93
2017-08-13T03:48:55.529Z,5.87
2017-08-13T03:51:22.656Z,6.47
2017-08-13T03:53:49.059Z,5.00
2017-08-13T03:56:15.423Z,5.50
2017-08-13T03:58:42.526Z,5.73
2017-08-13T04:01:08.908Z,5.73
2017-08-13T04:03:35.277Z,5.43
2017-08-13T04:06:01.560Z,6.10
2017-08-13T04:08:27.942Z,6.50
2017-08-13T04:10:54.699Z,5.90
2017-08-13T04:13:21.038Z,6.90
2017-08-13T04:15:47.371Z,6.00
2017-08-13T04:18:13.716Z,5.70
2017-08-13T04:20:42.694Z,5.70
2017-08-13T04:23:09.233Z,5.70
2017-08-13T04:25:35.606Z,5.77
2017-08-13T04:28:02.010Z,5.70
2017-08-13T04:30:28.402Z,5.53
2017-08-13T04:32:54.782Z,5.30
2017-08-13T04:35:21.872Z,5.37
2017-08-13T04:37:49.000Z,5.23
2017-08-13T04:40:15.383Z,5.60
2017-08-13T04:42:41.840Z,5.10
2017-08-13T04:45:08.227Z,4.93
2017-08-13T04:47:34.567Z,5.30
2017-08-13T04:50:00.955Z,4.77
2017-08-13T04:52:27.320Z,5.83
2017-08-13T04:54:53.968Z,5.53
2017-08-13T04:57:20.360Z,5.23
2017-08-13T04:59:46.739Z,5.20
2017-08-13T05:02:13.835Z,5.27
2017-08-13T05:04:40.203Z,4.97
2017-08-13T05:07:06.587Z,6.27
2017-08-13T05:09:32.921Z,4.90
2017-08-13T05:11:59.285Z,5.83
2017-08-13T05:14:25.653Z,4.87
2017-08-13T05:16:52.038Z,5.23
2017-08-13T05:19:18.419Z,5.60
2017-08-13T05:21:45.149Z,5.70
2017-08-13T05:24:11.508Z,4.90
2017-08-13T05:26:37.893Z,5.00
2017-08-13T05:29:05.108Z,5.77
2017-08-13T05:31:31.531Z,5.50
2017-08-13T05:33:57.898Z,5.67
2017-08-13T05:36:24.984Z,4.93
2017-08-13T05:38:51.352Z,5.33
2017-08-13T05:41:17.721Z,4.80
2017-08-13T05:43:44.402Z,4.90
2017-08-13T05:46:10.783Z,4.57
2017-08-13T05:48:40.824Z,5.53
2017-08-13T05:51:08.143Z,4.43
2017-08-13T05:53:35.561Z,4.40
2017-08-13T05:56:03.177Z,4.90
2017-08-13T05:58:29.676Z,5.13
2017-08-13T06:00:56.064Z,5.50
2017-08-13T06:03:23.692Z,4.40
2017-08-13T06:05:50.502Z,5.20
2017-08-13T06:08:16.851Z,5.80
2017-08-13T06:10:43.260Z,5.00
2017-08-13T06:13:09.613Z,6.00
2017-08-13T06:15:36.731Z,5.60
2017-08-13T06:18:03.092Z,5.37
2017-08-13T06:20:30.190Z,5.13
2017-08-13T06:22:56.606Z,5.00
2017-08-13T06:25:23.036Z,5.20
2017-08-13T06:27:49.439Z,5.30
2017-08-13T06:30:15.883Z,5.90
2017-08-13T06:32:42.624Z,5.70
2017-08-13T06:35:08.976Z,6.03
2017-08-13T06:37:35.379Z,5.90
2017-08-13T06:40:01.748Z,5.50
2017-08-13T06:42:28.133Z,5.80
2017-08-13T06:44:54.489Z,5.60
2017-08-13T06:47:20.868Z,5.10
2017-08-13T06:49:47.295Z,5.00
2017-08-13T06:52:13.649Z,4.90
2017-08-13T06:54:40.076Z,5.30
2017-08-13T06:57:07.194Z,5.70
2017-08-13T06:59:34.632Z,5.67
2017-08-13T07:02:01.018Z,5.83
2017-08-13T07:04:27.436Z,5.27
2017-08-13T07:06:54.584Z,4.90
2017-08-13T07:09:21.662Z,5.20
2017-08-13T07:11:48.054Z,4.50
2017-08-13T07:14:14.430Z,4.37
2017-08-13T07:16:41.591Z,3.93
2017-08-13T07:19:08.544Z,4.30
2017-08-13T07:21:34.971Z,4.47
2017-08-13T07:24:01.375Z,4.80
2017-08-13T07:26:27.733Z,4.57
2017-08-13T07:28:54.171Z,4.50
2017-08-13T07:31:20.856Z,5.50
2017-08-13T07:33:47.229Z,4.57
2017-08-13T07:36:14.451Z,4.70
2017-08-13T07:38:40.843Z,5.47
2017-08-13T07:41:07.194Z,3.60
2017-08-13T07:43:33.633Z,3.53
2017-08-13T07:46:00.047Z,2.93
2017-08-13T07:48:27.154Z,3.57
2017-08-13T07:50:53.557Z,2.63
2017-08-13T07:53:20.274Z,2.70
2017-08-13T07:55:46.641Z,2.80
2017-08-13T07:58:13.036Z,2.33
2017-08-13T08:00:39.361Z,3.20
2017-08-13T08:03:05.763Z,3.20
2017-08-13T08:05:32.140Z,3.20
2017-08-13T08:07:58.502Z,3.17
2017-08-13T08:10:24.879Z,3.23
2017-08-13T08:12:51.270Z,2.70
2017-08-13T08:15:17.905Z,3.10
2017-08-13T08:17:44.259Z,3.20
2017-08-13T08:20:11.334Z,3.10
2017-08-13T08:22:37.776Z,3.70
2017-08-13T08:25:04.190Z,3.20
2017-08-13T08:27:30.611Z,4.10
2017-08-13T08:29:57.047Z,3.50
2017-08-13T08:32:23.435Z,2.90
2017-08-13T08:34:49.797Z,2.90
2017-08-13T08:37:16.936Z,2.83
2017-08-13T08:39:43.297Z,2.73
2017-08-13T08:42:10.092Z,2.70
2017-08-13T08:44:36.469Z,3.27
2017-08-13T08:47:02.839Z,2.77
2017-08-13T08:49:29.280Z,3.07
2017-08-13T08:51:55.651Z,2.60
2017-08-13T08:54:22.059Z,3.40
2017-08-13T08:56:49.206Z,3.27
2017-08-13T08:59:16.359Z,2.50
2017-08-13T09:01:42.706Z,2.93
2017-08-13T09:04:09.091Z,2.63
2017-08-13T09:06:35.459Z,2.60
2017-08-13T09:09:02.131Z,2.70
2017-08-13T09:11:28.555Z,3.10
2017-08-13T09:13:54.950Z,3.00
2017-08-13T09:16:21.311Z,2.53
2017-08-13T09:18:47.732Z,2.90
2017-08-13T09:21:14.158Z,3.10
2017-08-13T09:23:40.519Z,3.20
2017-08-13T09:26:06.905Z,3.07
2017-08-13T09:28:33.355Z,2.60
2017-08-13T09:31:00.036Z,3.37
2017-08-13T09:33:26.432Z,3.20
2017-08-13T09:38:53.355Z,2.77
2017-08-13T09:41:20.466Z,3.80
2017-08-13T09:43:47.638Z,2.70
2017-08-13T09:46:14.738Z,2.90
2017-08-13T09:48:41.175Z,3.03
2017-08-13T09:51:07.601Z,3.90
2017-08-13T09:53:33.965Z,3.50
2017-08-13T09:56:00.341Z,2.53
2017-08-13T09:58:27.081Z,3.00
2017-08-13T10:00:53.443Z,2.90
2017-08-13T10:03:19.966Z,3.00
2017-08-13T10:05:46.433Z,3.00
2017-08-13T10:08:13.558Z,3.27
2017-08-13T10:10:40.282Z,2.80
2017-08-13T10:13:06.968Z,3.10
2017-08-13T10:15:34.187Z,3.73
2017-08-13T10:18:00.563Z,2.80
2017-08-13T10:20:26.966Z,2.90
2017-08-13T10:22:53.407Z,2.80
2017-08-13T10:25:20.089Z,2.77
2017-08-13T10:27:46.465Z,2.20
2017-08-13T10:30:12.836Z,1.87
2017-08-13T10:32:39.217Z,2.30
2017-08-13T10:35:05.741Z,1.70
2017-08-13T10:37:32.130Z,1.63
2017-08-13T10:39:58.542Z,2.00
2017-08-13T10:42:26.120Z,3.00
2017-08-13T10:44:52.625Z,2.20
2017-08-13T10:47:19.361Z,2.27
2017-08-13T10:49:46.502Z,1.50
2017-08-13T10:52:13.609Z,1.90
2017-08-13T10:54:40.040Z,1.50
2017-08-13T10:57:06.440Z,5.30
2017-08-13T10:59:32.859Z,2.47
2017-08-13T11:01:59.283Z,2.10
2017-08-13T11:04:25.987Z,1.70
2017-08-13T11:06:52.408Z,1.80
2017-08-13T11:09:18.891Z,1.70
2017-08-13T11:11:45.295Z,2.07
2017-08-13T11:14:11.624Z,1.40
2017-08-13T11:16:37.994Z,1.40
2017-08-13T11:19:04.402Z,2.10
2017-08-13T11:21:31.537Z,1.83
2017-08-13T11:23:58.716Z,1.70
2017-08-13T11:26:25.525Z,1.80
2017-08-13T11:28:51.923Z,2.20
2017-08-13T11:31:18.352Z,2.00
2017-08-13T11:33:44.788Z,1.83
2017-08-13T11:36:11.172Z,1.70
2017-08-13T11:38:37.610Z,1.40
2017-08-13T11:41:03.962Z,1.57
2017-08-13T11:43:30.364Z,1.37
2017-08-13T11:45:57.478Z,1.53
2017-08-13T11:48:24.278Z,1.40
2017-08-13T11:50:50.670Z,1.70
2017-08-13T11:53:17.804Z,1.37
2017-08-13T11:55:44.207Z,1.57
2017-08-13T11:58:10.581Z,1.70
2017-08-13T12:00:37.030Z,1.97
2017-08-13T12:03:03.439Z,1.87
2017-08-13T12:05:29.934Z,1.83
2017-08-13T12:07:56.332Z,1.57
2017-08-13T12:10:22.728Z,1.67
2017-08-13T12:12:49.894Z,1.30
2017-08-13T12:15:16.665Z,1.80
2017-08-13T12:17:43.438Z,1.50
2017-08-13T12:20:09.853Z,1.60
2017-08-13T12:22:36.346Z,1.63
2017-08-13T12:25:02.743Z,2.10
2017-08-13T12:27:31.546Z,1.70
2017-08-13T12:29:58.675Z,1.73
2017-08-13T12:32:26.157Z,1.73
2017-08-13T12:34:52.532Z,1.90
2017-08-13T12:37:18.879Z,1.70
2017-08-13T12:39:45.292Z,1.43
2017-08-13T12:42:11.677Z,1.80
2017-08-13T12:44:38.051Z,1.97
2017-08-13T12:47:04.409Z,1.70
2017-08-13T12:49:30.889Z,1.77
2017-08-13T12:51:57.239Z,1.40
2017-08-13T12:54:24.053Z,2.00
2017-08-13T12:56:50.454Z,1.50
2017-08-13T12:59:16.808Z,1.53
2017-08-13T13:01:43.236Z,1.50
2017-08-13T13:04:09.637Z,1.57
2017-08-13T13:06:36.901Z,1.30
2017-08-13T13:09:03.288Z,1.57
2017-08-13T13:11:36.628Z,2.10
2017-08-13T13:14:03.087Z,1.60
2017-08-13T13:16:29.864Z,1.90
2017-08-13T13:18:56.242Z,1.60
2017-08-13T13:21:22.654Z,1.73
2017-08-13T13:23:49.046Z,1.70
2017-08-13T13:26:15.531Z,1.30
2017-08-13T13:28:41.926Z,1.70
2017-08-13T13:31:09.046Z,2.00
2017-08-13T13:33:35.712Z,1.63
2017-08-13T13:36:02.107Z,1.87
2017-08-13T13:38:28.467Z,1.60
2017-08-13T13:40:54.878Z,1.77
2017-08-13T13:43:21.271Z,1.90
2017-08-13T13:45:47.608Z,2.07
2017-08-13T13:48:13.963Z,1.80
2017-08-13T13:50:40.348Z,2.07
2017-08-13T13:53:06.703Z,2.30
2017-08-13T13:55:33.403Z,2.03
2017-08-13T13:58:00.502Z,1.70
2017-08-13T14:00:26.913Z,2.80
2017-08-13T14:02:53.268Z,1.90
2017-08-13T14:05:19.611Z,1.80
2017-08-13T14:07:45.974Z,2.30
2017-08-13T14:10:12.318Z,2.00
2017-08-13T14:12:38.668Z,1.57
2017-08-13T14:15:05.029Z,1.57
2017-08-13T14:17:31.408Z,1.27
2017-08-13T14:19:57.785Z,2.30
2017-08-13T14:22:24.548Z,1.63
2017-08-13T14:24:50.877Z,1.80
2017-08-13T14:27:17.281Z,1.87
2017-08-13T14:29:43.659Z,1.97
2017-08-13T14:32:10.003Z,2.13
2017-08-13T14:34:36.461Z,1.90
2017-08-13T14:37:02.839Z,2.03
2017-08-13T14:39:29.242Z,2.47
2017-08-13T14:41:55.619Z,2.00
2017-08-13T14:44:22.319Z,2.00
2017-08-13T14:46:48.713Z,2.10
2017-08-13T14:49:15.083Z,1.77
2017-08-13T14:51:42.231Z,1.80
2017-08-13T14:54:09.328Z,1.70
2017-08-13T14:56:35.730Z,1.40
2017-08-13T14:59:02.124Z,1.30
2017-08-13T15:01:28.547Z,1.90
2017-08-13T15:03:54.952Z,1.50
2017-08-13T15:06:21.351Z,1.70
2017-08-13T15:08:47.725Z,2.27
2017-08-13T15:11:14.406Z,1.50
2017-08-13T15:13:41.529Z,2.33
2017-08-13T15:16:07.893Z,1.90
2017-08-13T15:18:35.034Z,2.83
2017-08-13T15:21:01.415Z,2.80
2017-08-13T15:23:27.786Z,1.70
2017-08-13T15:25:54.905Z,1.90
2017-08-13T15:28:21.306Z,1.80
2017-08-13T15:30:47.672Z,2.27
2017-08-13T15:33:14.124Z,1.87
2017-08-13T15:35:40.478Z,1.70
2017-08-13T15:38:07.303Z,2.23
2017-08-13T15:40:33.683Z,1.90
2017-08-13T15:43:00.065Z,1.80
2017-08-13T15:45:27.188Z,1.90
2017-08-13T15:47:53.805Z,1.93
2017-08-13T15:50:20.187Z,1.60
2017-08-13T15:52:47.289Z,1.60
2017-08-13T15:55:13.682Z,1.83
2017-08-13T15:57:40.047Z,1.83
2017-08-13T16:00:06.523Z,1.33
2017-08-13T16:02:32.899Z,1.90
2017-08-13T16:04:59.588Z,2.27
2017-08-13T16:07:26.057Z,2.20
2017-08-13T16:09:52.438Z,2.33
2017-08-13T16:12:18.846Z,1.30
2017-08-13T16:14:45.215Z,1.47
2017-08-13T16:17:12.343Z,1.67
2017-08-13T16:19:38.708Z,1.60
2017-08-13T16:22:05.128Z,1.97
2017-08-13T16:24:31.533Z,1.43
2017-08-13T16:26:57.886Z,1.53
2017-08-13T16:29:24.279Z,1.30
2017-08-13T16:31:50.895Z,1.23
2017-08-13T16:34:17.284Z,1.50
2017-08-13T16:36:43.693Z,1.57
2017-08-13T16:39:10.781Z,2.37
2017-08-13T16:41:37.181Z,1.20
2017-08-13T16:44:04.292Z,1.20
2017-08-13T16:46:30.678Z,1.80
2017-08-13T16:48:57.076Z,1.73
2017-08-13T16:51:23.426Z,1.20
2017-08-13T16:53:50.112Z,1.20
2017-08-13T16:56:16.521Z,1.70
2017-08-13T16:58:42.982Z,1.70
2017-08-13T17:01:10.140Z,1.50
2017-08-13T17:03:36.506Z,1.43
2017-08-13T17:06:02.917Z,1.30
2017-08-13T17:08:29.257Z,1.30
2017-08-13T17:11:03.256Z,1.60
2017-08-13T17:13:30.344Z,1.40
2017-08-13T17:15:56.704Z,1.53
2017-08-13T17:18:23.074Z,1.23
2017-08-13T17:20:49.448Z,1.10
2017-08-13T17:23:15.968Z,1.60
2017-08-13T17:25:43.708Z,1.37
2017-08-13T17:28:10.104Z,1.20
2017-08-13T17:30:36.441Z,1.80
2017-08-13T17:33:02.864Z,1.40
2017-08-13T17:35:29.211Z,1.50
2017-08-13T17:37:56.528Z,1.40
2017-08-13T17:40:22.902Z,2.13
2017-08-13T17:42:49.286Z,2.10
2017-08-13T17:45:15.650Z,1.53
2017-08-13T17:47:42.805Z,1.37
2017-08-13T17:50:09.858Z,1.37
2017-08-13T17:52:36.986Z,1.93
2017-08-13T17:55:04.125Z,1.73
2017-08-13T17:57:30.511Z,1.60
2017-08-13T17:59:56.927Z,1.37
2017-08-13T18:02:23.332Z,1.30
2017-08-13T18:04:50.480Z,1.30
2017-08-13T18:07:16.864Z,1.20
2017-08-13T18:09:43.544Z,1.47
2017-08-13T18:12:10.717Z,1.70
2017-08-13T18:14:37.135Z,1.30
2017-08-13T18:17:04.267Z,1.40
2017-08-13T18:19:30.671Z,1.47
2017-08-13T18:21:57.109Z,1.73
2017-08-13T18:24:23.507Z,1.40
2017-08-13T18:26:49.926Z,1.40
2017-08-13T18:29:16.326Z,1.73
2017-08-13T18:31:43.463Z,1.70
2017-08-13T18:34:09.864Z,1.40
2017-08-13T18:36:36.655Z,1.60
2017-08-13T18:39:03.110Z,1.33
2017-08-13T18:41:29.464Z,1.50
2017-08-13T18:43:55.904Z,1.40
2017-08-13T18:46:22.279Z,1.67
2017-08-13T18:48:48.701Z,1.70
2017-08-13T18:51:15.850Z,1.93
2017-08-13T18:53:43.053Z,1.73
2017-08-13T18:56:09.437Z,2.17
2017-08-13T18:58:35.866Z,2.30
2017-08-13T19:01:03.050Z,2.50
2017-08-13T19:03:29.807Z,2.00
2017-08-13T19:05:56.246Z,2.00
2017-08-13T19:08:22.670Z,1.70
2017-08-13T19:10:49.100Z,1.73
2017-08-13T19:13:15.534Z,1.70
2017-08-13T19:15:41.963Z,2.20
2017-08-13T19:18:08.385Z,2.47
2017-08-13T19:20:34.790Z,1.67
2017-08-13T19:23:01.170Z,1.73
2017-08-13T19:25:27.672Z,2.03
2017-08-13T19:27:54.041Z,1.80
2017-08-13T19:30:20.778Z,2.10
2017-08-13T19:32:47.235Z,2.27
2017-08-13T19:35:13.742Z,1.33
2017-08-13T19:37:41.030Z,1.90
2017-08-13T19:40:07.526Z,2.63
2017-08-13T19:42:33.994Z,1.93
2017-08-13T19:45:00.370Z,2.20
2017-08-13T19:47:26.813Z,2.03
2017-08-13T19:49:53.204Z,2.30
2017-08-13T19:52:20.045Z,1.80
2017-08-13T19:54:46.523Z,2.07
2017-08-13T19:57:13.711Z,1.80
2017-08-13T19:59:40.185Z,1.80
2017-08-13T20:02:06.592Z,1.97
2017-08-13T20:04:33.013Z,2.40
2017-08-13T20:06:59.511Z,1.93
2017-08-13T20:09:26.689Z,2.30
2017-08-13T20:11:53.214Z,2.00
2017-08-13T20:14:19.644Z,2.10
2017-08-13T20:16:46.110Z,2.50
2017-08-13T20:19:12.924Z,2.13
2017-08-13T20:21:39.347Z,2.10
2017-08-13T20:24:05.788Z,2.40
2017-08-13T20:26:32.187Z,2.20
2017-08-13T20:28:59.313Z,3.03
2017-08-13T20:31:25.718Z,2.20
2017-08-13T20:33:52.215Z,2.33
2017-08-13T20:36:18.611Z,2.00
2017-08-13T20:38:44.996Z,2.13
2017-08-13T20:41:11.794Z,2.00
2017-08-13T20:43:38.184Z,2.70
2017-08-13T20:46:04.582Z,2.50
2017-08-13T20:48:31.005Z,2.43
2017-08-13T20:50:58.141Z,2.43
2017-08-13T20:53:24.546Z,2.00
2017-08-13T20:55:50.930Z,2.60
2017-08-13T20:58:17.305Z,2.50
2017-08-13T21:00:43.669Z,2.33
2017-08-13T21:03:11.119Z,2.07
2017-08-13T21:05:38.253Z,2.40
2017-08-13T21:08:04.603Z,1.73
2017-08-13T21:10:31.028Z,2.27
2017-08-13T21:12:58.174Z,2.07
2017-08-13T21:15:24.571Z,2.43
2017-08-13T21:17:50.930Z,2.13
2017-08-13T21:20:17.289Z,2.50
2017-08-13T21:22:43.650Z,2.20
2017-08-13T21:25:10.323Z,2.43
2017-08-13T21:27:36.674Z,2.20
2017-08-13T21:30:03.763Z,2.97
2017-08-13T21:32:30.137Z,2.10
2017-08-13T21:34:56.511Z,2.53
2017-08-13T21:37:23.063Z,2.70
2017-08-13T21:39:49.437Z,1.97
2017-08-13T21:42:15.822Z,2.60
2017-08-13T21:44:42.171Z,2.37
2017-08-13T21:47:08.498Z,2.40
2017-08-13T21:49:34.905Z,2.50
2017-08-13T21:52:01.270Z,2.57
2017-08-13T21:54:27.634Z,3.40
2017-08-13T21:56:54.000Z,2.20
2017-08-13T21:59:20.670Z,2.27
2017-08-13T22:01:47.774Z,2.27
2017-08-13T22:04:14.067Z,2.70
2017-08-13T22:06:40.446Z,2.70
2017-08-13T22:09:06.856Z,2.40
2017-08-13T22:11:33.244Z,2.30
2017-08-13T22:13:59.628Z,2.37
2017-08-13T22:16:25.990Z,2.40
2017-08-13T22:18:52.355Z,2.37
2017-08-13T22:21:19.030Z,2.57
2017-08-13T22:23:45.444Z,3.40
2017-08-13T22:26:11.825Z,3.10
2017-08-13T22:28:38.962Z,2.93
2017-08-13T22:31:05.322Z,2.90
2017-08-13T22:33:32.417Z,3.00
2017-08-13T22:35:58.775Z,2.93
2017-08-13T22:38:26.009Z,2.87
2017-08-13T22:40:52.382Z,3.00
2017-08-13T22:43:18.754Z,2.70
2017-08-13T22:45:45.125Z,2.80
2017-08-13T22:48:11.444Z,2.77
2017-08-13T22:50:37.820Z,2.80
2017-08-13T22:53:04.180Z,2.80
2017-08-13T22:55:30.587Z,3.63
2017-08-13T22:57:57.000Z,3.40
2017-08-13T23:00:23.689Z,2.50
2017-08-13T23:02:50.088Z,3.13
2017-08-13T23:05:16.500Z,3.37
2017-08-13T23:07:42.851Z,3.40
2017-08-13T23:10:10.471Z,4.10
2017-08-13T23:12:36.943Z,3.93
2017-08-13T23:15:03.345Z,3.23
2017-08-13T23:17:30.058Z,3.10
2017-08-13T23:19:57.231Z,3.20
2017-08-13T23:22:23.634Z,3.07
2017-08-13T23:24:50.731Z,2.80
2017-08-13T23:27:17.096Z,3.10
2017-08-13T23:29:43.530Z,3.10
2017-08-13T23:32:10.641Z,2.87
2017-08-13T23:34:37.356Z,2.80
2017-08-13T23:37:03.762Z,2.70
2017-08-13T23:39:30.171Z,3.50
2017-08-13T23:41:56.561Z,3.10
2017-08-13T23:44:22.934Z,2.57
2017-08-13T23:46:49.299Z,3.00
2017-08-13T23:49:15.654Z,2.60
2017-08-13T23:51:42.046Z,2.67
2017-08-13T23:54:09.226Z,2.77
2017-08-13T23:56:35.895Z,3.20
2017-08-13T23:59:02.225Z,3.30
